Terminal Aerodrome Forecast
Issued by NWS Oklahoma City, OK

Home | Current Version | Previous Version | Text Only | Print | Product List | Glossary On
Versions: 1 2 3 4 5 6 7 8 9 10 11 12 13 14 15 16 17 18 19 20 21 22 23
472
FTUS44 KOUN 221736
TAFOUN
TAF
KOUN 221736Z 2218/2318 20010KT P6SM BKN120
     FM222200 04007KT P6SM BKN080
      TEMPO 2223/2303 3SM TSRA OVC040CB
     FM230300 03006KT P6SM OVC050
      TEMPO 2303/2307 3SM TSRA OVC040CB
     FM231400 05009KT P6SM SCT030=

USA.gov is the U.S. government's official web portal to all federal, state and local government web resources and services.